createdAt,value
2019-03-23T00:00:42.848Z,99105.56
2019-03-23T00:03:13.889Z,99106.08
2019-03-23T00:05:53.714Z,99110.90
2019-03-23T00:08:24.832Z,99112.62
2019-03-23T00:10:55.768Z,99115.17
2019-03-23T00:13:26.788Z,99110.44
2019-03-23T00:16:03.930Z,99104.44
2019-03-23T00:18:34.877Z,99110.11
2019-03-23T00:21:05.883Z,99105.38
2019-03-23T00:23:37.118Z,99105.00
2019-03-23T00:26:16.202Z,99101.55
2019-03-23T00:28:47.398Z,99095.94
2019-03-23T00:31:18.576Z,99102.85
2019-03-23T00:33:49.673Z,99099.87
2019-03-23T00:36:20.471Z,99096.02
2019-03-23T00:38:51.448Z,99097.77
2019-03-23T00:41:22.333Z,99090.86
2019-03-23T00:43:53.402Z,99089.97
2019-03-23T00:46:24.483Z,99090.85
2019-03-23T00:48:55.438Z,99086.98
2019-03-23T00:51:26.395Z,99090.45
2019-03-23T00:53:57.383Z,99090.88
2019-03-23T00:56:28.276Z,99088.72
2019-03-23T00:58:59.304Z,99088.32
2019-03-23T01:01:30.369Z,99088.30
2019-03-23T01:04:01.424Z,99079.28
2019-03-23T01:06:32.428Z,99079.71
2019-03-23T01:09:04.932Z,99079.73
2019-03-23T01:11:35.842Z,99081.90
2019-03-23T01:14:06.708Z,99081.46
2019-03-23T01:16:37.673Z,99078.05
2019-03-23T01:19:08.690Z,99069.45
2019-03-23T01:21:39.682Z,99068.16
2019-03-23T01:24:10.806Z,99056.99
2019-03-23T01:26:41.755Z,99062.16
2019-03-23T01:29:12.730Z,99063.44
2019-03-23T01:31:43.744Z,99059.59
2019-03-23T01:34:14.772Z,99055.73
2019-03-23T01:36:45.719Z,99057.44
2019-03-23T01:39:16.650Z,99057.89
2019-03-23T01:41:47.530Z,99057.88
2019-03-23T01:44:18.741Z,99057.44
2019-03-23T01:46:49.691Z,99057.45
2019-03-23T01:49:20.642Z,99060.47
2019-03-23T01:51:51.945Z,99055.30
2019-03-23T01:54:22.926Z,99055.72
2019-03-23T01:56:53.974Z,99058.75
2019-03-23T01:59:24.949Z,99057.89
2019-03-23T02:01:56.013Z,99060.02
2019-03-23T02:04:27.077Z,99056.59
2019-03-23T02:06:58.028Z,99062.17
2019-03-23T02:09:29.033Z,99058.73
2019-03-23T02:11:59.999Z,99058.74
2019-03-23T02:14:31.036Z,99067.31
2019-03-23T02:17:01.952Z,99058.73
2019-03-23T02:19:32.999Z,99061.28
2019-03-23T02:22:03.961Z,99062.14
2019-03-23T02:24:35.477Z,99067.73
2019-03-23T02:27:07.072Z,99059.57
2019-03-23T02:29:38.051Z,99062.55
2019-03-23T02:32:08.987Z,99067.27
2019-03-23T02:34:39.923Z,99062.98
2019-03-23T02:37:10.853Z,99062.98
2019-03-23T02:39:41.794Z,99064.72
2019-03-23T02:42:12.889Z,99066.41
2019-03-23T02:44:43.942Z,99065.95
2019-03-23T02:47:15.044Z,99063.37
2019-03-23T02:49:46.147Z,99066.80
2019-03-23T02:52:17.127Z,99067.23
2019-03-23T02:54:48.172Z,99069.34
2019-03-23T02:57:19.235Z,99070.61
2019-03-23T02:59:50.298Z,99070.14
2019-03-23T03:02:21.342Z,99070.57
2019-03-23T03:04:52.159Z,99069.28
2019-03-23T03:07:26.806Z,99065.02
2019-03-23T03:09:57.734Z,99062.84
2019-03-23T03:12:28.640Z,99050.85
2019-03-23T03:14:59.540Z,99058.98
2019-03-23T03:17:30.426Z,99055.53
2019-03-23T03:20:01.436Z,99055.95
2019-03-23T03:22:32.395Z,99055.98
2019-03-23T03:25:03.490Z,99056.40
2019-03-23T03:27:34.560Z,99057.65
2019-03-23T03:30:07.014Z,99052.47
2019-03-23T03:32:37.937Z,99054.13
2019-03-23T03:35:09.529Z,99051.09
2019-03-23T03:37:40.520Z,99048.59
2019-03-23T03:40:11.844Z,99052.45
2019-03-23T03:42:42.834Z,99055.37
2019-03-23T03:45:25.258Z,99049.30
2019-03-23T03:47:56.543Z,99046.64
2019-03-23T03:50:27.411Z,99040.64
2019-03-23T03:52:58.287Z,99041.48
2019-03-23T03:55:29.354Z,99044.02
2019-03-23T03:58:00.235Z,99041.86
2019-03-23T04:00:31.174Z,99043.13
2019-03-23T04:03:02.415Z,99045.24
2019-03-23T04:05:33.383Z,99043.98
2019-03-23T04:08:11.379Z,99039.66
2019-03-23T04:10:37.270Z,99039.66
2019-03-23T04:13:08.173Z,99043.94
2019-03-23T04:15:39.264Z,99041.39
2019-03-23T04:18:10.330Z,99041.39
2019-03-23T04:20:41.304Z,99040.98
2019-03-23T04:23:12.295Z,99043.95
2019-03-23T04:25:43.162Z,99042.69
2019-03-23T04:28:14.158Z,99042.70
2019-03-23T04:30:45.024Z,99039.73
2019-03-23T04:33:15.974Z,99041.86
2019-03-23T04:35:46.999Z,99046.97
2019-03-23T04:38:22.456Z,99048.23
2019-03-23T04:40:50.665Z,99049.52
2019-03-23T04:43:21.803Z,99049.93
2019-03-23T04:45:53.058Z,99047.34
2019-03-23T04:48:23.991Z,99048.59
2019-03-23T04:50:54.913Z,99056.24
2019-03-23T04:53:25.962Z,99048.55
2019-03-23T04:55:57.000Z,99055.02
2019-03-23T04:58:28.047Z,99052.87
2019-03-23T05:00:59.248Z,99058.46
2019-03-23T05:03:30.200Z,99063.56
2019-03-23T05:06:01.177Z,99067.41
2019-03-23T05:08:33.673Z,99063.97
2019-03-23T05:11:04.992Z,99068.61
2019-03-23T05:13:35.914Z,99074.19
2019-03-23T05:16:06.970Z,99067.34
2019-03-23T05:18:38.432Z,99076.86
2019-03-23T05:21:09.466Z,99077.70
2019-03-23T05:23:40.551Z,99080.73
2019-03-23T05:26:11.455Z,99083.28
2019-03-23T05:28:42.516Z,99085.02
2019-03-23T05:31:13.402Z,99090.22
2019-03-23T05:33:44.356Z,99085.97
2019-03-23T05:36:15.480Z,99088.99
2019-03-23T05:38:46.628Z,99091.14
2019-03-23T05:41:17.640Z,99084.72
2019-03-23T05:43:48.526Z,99087.32
2019-03-23T05:46:19.525Z,99084.34
2019-03-23T05:48:50.470Z,99088.25
2019-03-23T05:51:21.592Z,99085.70
2019-03-23T05:53:52.564Z,99095.13
2019-03-23T05:56:23.526Z,99087.44
2019-03-23T05:58:56.585Z,99093.44
2019-03-23T06:01:27.474Z,99109.31
2019-03-23T06:03:58.872Z,99109.05
2019-03-23T06:06:30.048Z,99111.79
2019-03-23T06:09:01.023Z,99111.89
2019-03-23T06:11:31.922Z,99109.35
2019-03-23T06:14:03.007Z,99109.83
2019-03-23T06:16:34.005Z,99102.56
2019-03-23T06:19:05.023Z,99110.30
2019-03-23T06:21:35.929Z,99101.72
2019-03-23T06:24:07.012Z,99106.86
2019-03-23T06:26:38.083Z,99103.84
2019-03-23T06:29:09.124Z,99105.12
2019-03-23T06:31:40.154Z,99105.55
2019-03-23T06:34:11.084Z,99101.66
2019-03-23T06:36:41.964Z,99104.25
2019-03-23T06:39:13.059Z,99102.53
2019-03-23T06:41:43.907Z,99109.37
2019-03-23T06:44:14.873Z,99102.47
2019-03-23T06:46:45.836Z,99102.42
2019-03-23T06:49:21.801Z,99101.92
2019-03-23T06:52:16.282Z,99100.95
2019-03-23T06:54:53.258Z,99095.31
2019-03-23T06:57:26.065Z,99092.14
2019-03-23T06:59:56.979Z,99096.67
2019-03-23T07:02:28.163Z,99093.34
2019-03-23T07:04:59.153Z,99101.56
2019-03-23T07:07:30.401Z,99094.77
2019-03-23T07:10:01.274Z,99096.84
2019-03-23T07:12:32.282Z,99093.05
2019-03-23T07:15:04.615Z,99090.62
2019-03-23T07:17:36.312Z,99095.20
2019-03-23T07:20:12.494Z,99092.82
2019-03-23T07:22:43.814Z,99096.95
2019-03-23T07:25:16.495Z,99097.80
2019-03-23T07:27:47.410Z,99093.33
2019-03-23T07:30:18.879Z,99088.86
2019-03-23T07:32:50.382Z,99085.00
2019-03-23T07:35:21.943Z,99084.73
2019-03-23T07:37:53.381Z,99085.13
2019-03-23T07:40:24.598Z,99086.63
2019-03-23T07:42:56.043Z,99083.13
2019-03-23T07:45:27.153Z,99084.73
2019-03-23T07:47:58.099Z,99091.67
2019-03-23T07:50:29.937Z,99092.34
2019-03-23T07:53:00.859Z,99090.06
2019-03-23T07:55:32.059Z,99095.50
2019-03-23T07:58:02.992Z,99091.78
2019-03-23T08:00:33.971Z,99085.13
2019-03-23T08:03:04.934Z,99077.62
2019-03-23T08:05:36.025Z,99081.35
2019-03-23T08:08:07.176Z,99073.33
2019-03-23T08:10:38.298Z,99073.20
2019-03-23T08:13:09.537Z,99069.47
2019-03-23T08:15:40.633Z,99070.69
2019-03-23T08:18:13.297Z,99071.45
2019-03-23T08:20:45.024Z,99072.91
2019-03-23T08:23:16.191Z,99075.83
2019-03-23T08:25:47.264Z,99075.88
2019-03-23T08:28:19.642Z,99071.39
2019-03-23T08:30:50.858Z,99071.31
2019-03-23T08:33:22.645Z,99068.22
2019-03-23T08:35:55.298Z,99072.78
2019-03-23T08:38:27.899Z,99073.29
2019-03-23T08:40:59.010Z,99074.20
2019-03-23T08:43:30.111Z,99071.39
2019-03-23T08:46:01.074Z,99066.08
2019-03-23T08:48:32.004Z,99067.41
2019-03-23T08:51:03.064Z,99064.67
2019-03-23T08:53:35.480Z,99061.36
2019-03-23T08:56:06.429Z,99061.27
2019-03-23T08:58:36.226Z,99054.40
2019-03-23T09:01:07.276Z,99062.15
2019-03-23T09:03:38.374Z,99057.91
2019-03-23T09:06:09.359Z,99058.06
2019-03-23T09:08:40.427Z,99060.95
2019-03-23T09:11:20.221Z,99058.62
2019-03-23T09:13:44.172Z,99053.46
2019-03-23T09:16:15.159Z,99053.50
2019-03-23T09:18:46.066Z,99053.78
2019-03-23T09:21:17.085Z,99044.45
2019-03-23T09:23:48.132Z,99044.52
2019-03-23T09:26:19.226Z,99050.69
2019-03-23T09:28:50.212Z,99051.53
2019-03-23T09:31:21.232Z,99054.68
2019-03-23T09:33:52.476Z,99043.67
2019-03-23T09:36:23.480Z,99048.75
2019-03-23T09:38:54.440Z,99041.33
2019-03-23T09:41:25.526Z,99045.73
2019-03-23T09:43:56.830Z,99041.67
2019-03-23T09:46:27.808Z,99027.75
2019-03-23T09:48:58.751Z,99027.75
2019-03-23T09:51:29.799Z,99028.69
2019-03-23T09:54:00.835Z,99030.52
2019-03-23T09:56:31.989Z,99030.78
2019-03-23T09:59:03.031Z,99025.54
2019-03-23T10:01:34.362Z,99020.82
2019-03-23T10:04:05.447Z,99020.82
2019-03-23T10:06:36.474Z,99026.66
2019-03-23T10:09:07.463Z,99025.03
2019-03-23T10:11:38.683Z,99028.75
2019-03-23T10:14:09.661Z,99017.44
2019-03-23T10:16:40.916Z,99016.86
2019-03-23T10:19:12.108Z,99014.83
2019-03-23T10:21:43.257Z,99014.91
2019-03-23T10:24:14.236Z,99015.21
2019-03-23T10:26:45.377Z,99016.45
2019-03-23T10:29:16.392Z,99011.08
2019-03-23T10:31:47.423Z,99009.36
2019-03-23T10:34:18.415Z,99005.64
2019-03-23T10:36:49.401Z,99005.94
2019-03-23T10:39:20.408Z,99004.25
2019-03-23T10:41:51.800Z,99004.23
2019-03-23T10:44:22.816Z,99000.21
2019-03-23T10:46:53.723Z,99005.91
2019-03-23T10:49:24.636Z,99007.58
2019-03-23T10:51:55.616Z,98999.17
2019-03-23T10:54:26.688Z,99002.05
2019-03-23T10:56:57.786Z,98998.20
2019-03-23T10:59:28.756Z,98996.31
2019-03-23T11:01:59.899Z,98996.34
2019-03-23T11:04:30.927Z,98985.33
2019-03-23T11:07:01.872Z,98988.14
2019-03-23T11:09:33.056Z,98987.89
2019-03-23T11:12:04.174Z,98984.92
2019-03-23T11:14:35.148Z,98989.78
2019-03-23T11:17:06.249Z,98985.48
2019-03-23T11:19:37.292Z,98981.94
2019-03-23T11:22:10.055Z,98978.48
2019-03-23T11:24:41.303Z,98971.94
2019-03-23T11:27:12.399Z,98979.39
2019-03-23T11:29:43.566Z,98976.02
2019-03-23T11:32:14.542Z,98971.20
2019-03-23T11:34:45.735Z,98979.26
2019-03-23T11:37:17.129Z,98979.97
2019-03-23T11:39:48.138Z,98975.05
2019-03-23T11:42:19.265Z,98976.64
2019-03-23T11:44:50.551Z,98972.85
2019-03-23T11:47:21.580Z,98968.52
2019-03-23T11:49:52.608Z,98958.46
2019-03-23T11:52:23.695Z,98958.46
2019-03-23T11:54:54.799Z,98965.68
2019-03-23T11:57:26.045Z,98965.68
2019-03-23T11:59:57.277Z,98942.73
2019-03-23T12:02:31.722Z,98950.52
2019-03-23T12:05:03.238Z,98937.45
2019-03-23T12:07:37.179Z,98929.26
2019-03-23T12:10:10.841Z,98947.73
2019-03-23T12:12:41.936Z,98936.95
2019-03-23T12:15:14.288Z,98945.15
2019-03-23T12:17:45.375Z,98944.92
2019-03-23T12:20:16.538Z,98943.54
2019-03-23T12:22:47.739Z,98943.54
2019-03-23T12:25:18.806Z,98950.88
2019-03-23T12:27:49.851Z,98924.03
2019-03-23T12:30:21.103Z,98924.03
2019-03-23T12:32:52.444Z,98934.87
2019-03-23T12:35:23.662Z,98931.47
2019-03-23T12:37:56.007Z,98929.47
2019-03-23T12:40:30.042Z,98917.99
2019-03-23T12:43:01.160Z,98917.54
2019-03-23T12:45:32.301Z,98921.51
2019-03-23T12:48:03.288Z,98920.65
2019-03-23T12:50:34.407Z,98910.45
2019-03-23T12:53:05.674Z,98914.49
2019-03-23T12:55:36.821Z,98907.05
2019-03-23T12:58:09.532Z,98896.05
2019-03-23T13:00:40.637Z,98895.23
2019-03-23T13:03:11.637Z,98905.48
2019-03-23T13:05:42.863Z,98896.69
2019-03-23T13:08:13.940Z,98892.09
2019-03-23T13:10:45.285Z,98893.59
2019-03-23T13:13:16.504Z,98897.55
2019-03-23T13:15:49.219Z,98893.89
2019-03-23T13:18:27.178Z,98893.89
2019-03-23T13:20:54.790Z,98884.94
2019-03-23T13:23:25.935Z,98891.31
2019-03-23T13:25:56.976Z,98882.61
2019-03-23T13:28:28.124Z,98885.64
2019-03-23T13:30:59.200Z,98885.31
2019-03-23T13:33:30.409Z,98880.22
2019-03-23T13:36:01.582Z,98880.63
2019-03-23T13:38:32.541Z,98879.77
2019-03-23T13:41:09.860Z,98866.33
2019-03-23T13:43:41.029Z,98873.70
2019-03-23T13:46:12.244Z,98873.70
2019-03-23T13:48:43.366Z,98874.13
2019-03-23T13:51:15.727Z,98874.13
2019-03-23T13:53:46.906Z,98863.70
2019-03-23T13:56:17.956Z,98863.32
2019-03-23T13:58:49.216Z,98855.92
2019-03-23T14:01:20.352Z,98844.66
2019-03-23T14:03:51.512Z,98850.16
2019-03-23T14:06:22.590Z,98845.53
2019-03-23T14:08:53.790Z,98843.95
2019-03-23T14:11:24.782Z,98836.56
2019-03-23T14:13:55.812Z,98845.38
2019-03-23T14:16:26.868Z,98833.47
2019-03-23T14:18:57.846Z,98833.72
2019-03-23T14:21:28.902Z,98822.80
2019-03-23T14:23:59.952Z,98832.08
2019-03-23T14:26:31.198Z,98830.97
2019-03-23T14:29:02.173Z,98826.83
2019-03-23T14:31:33.249Z,98826.83
2019-03-23T14:34:04.362Z,98832.07
2019-03-23T14:36:35.504Z,98832.07
2019-03-23T14:39:07.303Z,98834.22
2019-03-23T14:41:38.501Z,98833.05
2019-03-23T14:44:09.525Z,98829.56
2019-03-23T14:46:40.590Z,98833.52
2019-03-23T14:49:11.762Z,98827.30
2019-03-23T14:51:42.667Z,98829.20
2019-03-23T14:54:14.026Z,98824.09
2019-03-23T14:56:45.146Z,98829.42
2019-03-23T14:59:16.250Z,98822.97
2019-03-23T15:01:47.394Z,98821.25
2019-03-23T15:04:42.883Z,98830.00
2019-03-23T15:07:20.812Z,98821.52
2019-03-23T15:09:51.919Z,98826.98
2019-03-23T15:12:22.931Z,98821.26
2019-03-23T15:14:54.272Z,98827.45
2019-03-23T15:17:25.333Z,98824.66
2019-03-23T15:19:56.382Z,98821.00
2019-03-23T15:22:27.414Z,98817.55
2019-03-23T15:24:58.495Z,98817.55
2019-03-23T15:27:29.632Z,98830.99
2019-03-23T15:30:01.197Z,98821.91
2019-03-23T15:32:32.469Z,98823.73
2019-03-23T15:35:04.625Z,98822.84
2019-03-23T15:37:35.651Z,98822.95
2019-03-23T15:40:07.721Z,98822.83
2019-03-23T15:42:40.364Z,98826.42
2019-03-23T15:45:12.316Z,98825.16
2019-03-23T15:47:43.652Z,98829.42
2019-03-23T15:50:15.027Z,98830.45
2019-03-23T15:52:46.118Z,98836.40
2019-03-23T15:55:17.581Z,98833.27
2019-03-23T15:58:04.991Z,98828.59
2019-03-23T16:00:36.330Z,98819.06
2019-03-23T16:03:07.589Z,98824.79
2019-03-23T16:05:38.861Z,98832.45
2019-03-23T16:08:09.814Z,98823.86
2019-03-23T16:10:40.718Z,98830.32
2019-03-23T16:13:11.685Z,98829.41
2019-03-23T16:15:43.008Z,98824.27
2019-03-23T16:18:13.965Z,98831.27
2019-03-23T16:20:45.049Z,98827.84
2019-03-23T16:23:16.134Z,98831.03
2019-03-23T16:25:47.169Z,98834.53
2019-03-23T16:28:18.342Z,98838.44
2019-03-23T16:30:49.380Z,98830.92
2019-03-23T16:33:20.579Z,98835.52
2019-03-23T16:35:51.562Z,98840.73
2019-03-23T16:38:25.654Z,98841.59
2019-03-23T16:40:56.695Z,98837.73
2019-03-23T16:43:28.031Z,98831.81
2019-03-23T16:45:59.237Z,98837.55
2019-03-23T16:48:30.891Z,98831.27
2019-03-23T16:51:02.000Z,98840.94
2019-03-23T16:53:33.261Z,98832.88
2019-03-23T16:56:04.555Z,98827.82
2019-03-23T16:58:35.911Z,98827.82
2019-03-23T17:01:07.207Z,98838.65
2019-03-23T17:03:38.295Z,98834.86
2019-03-23T17:06:13.414Z,98835.45
2019-03-23T17:08:44.737Z,98837.73
2019-03-23T17:11:15.833Z,98837.92
2019-03-23T17:13:46.860Z,98838.22
2019-03-23T17:16:18.155Z,98840.36
2019-03-23T17:18:49.224Z,98839.39
2019-03-23T17:21:20.239Z,98842.37
2019-03-23T17:23:51.315Z,98838.32
2019-03-23T17:26:22.450Z,98843.00
2019-03-23T17:28:53.428Z,98845.83
2019-03-23T17:31:25.025Z,98849.81
2019-03-23T17:33:56.407Z,98851.65
2019-03-23T17:36:27.402Z,98856.75
2019-03-23T17:38:58.520Z,98856.14
2019-03-23T17:41:29.534Z,98858.72
2019-03-23T17:44:00.537Z,98859.50
2019-03-23T17:46:31.843Z,98864.76
2019-03-23T17:49:02.935Z,98869.83
2019-03-23T17:51:33.871Z,98867.50
2019-03-23T17:54:05.260Z,98865.53
2019-03-23T17:56:47.328Z,98864.89
2019-03-23T17:59:18.824Z,98868.58
2019-03-23T18:01:49.976Z,98874.33
2019-03-23T18:04:21.039Z,98876.92
2019-03-23T18:06:52.288Z,98874.55
2019-03-23T18:09:23.332Z,98873.99
2019-03-23T18:11:54.282Z,98871.84
2019-03-23T18:14:25.371Z,98876.84
2019-03-23T18:16:56.476Z,98882.16
2019-03-23T18:19:27.726Z,98888.77
2019-03-23T18:21:58.845Z,98882.09
2019-03-23T18:24:31.687Z,98884.60
2019-03-23T18:30:45.831Z,98895.95
2019-03-23T18:33:33.774Z,98892.20
2019-03-23T18:36:14.754Z,98897.02
2019-03-23T18:38:53.758Z,98898.76
2019-03-23T18:41:37.168Z,98899.02
2019-03-23T18:44:16.240Z,98899.42
2019-03-23T18:46:43.919Z,98898.88
2019-03-23T18:49:15.133Z,98906.39
2019-03-23T18:51:46.163Z,98906.00
2019-03-23T18:54:17.242Z,98911.89
2019-03-23T18:56:48.138Z,98916.50
2019-03-23T18:59:19.140Z,98914.63
2019-03-23T19:01:50.090Z,98918.48
2019-03-23T19:04:23.205Z,98922.17
2019-03-23T19:06:54.369Z,98923.89
2019-03-23T19:09:25.725Z,98917.91
2019-03-23T19:11:57.621Z,98928.41
2019-03-23T19:14:32.110Z,98926.28
2019-03-23T19:17:03.149Z,98929.08
2019-03-23T19:19:34.400Z,98925.14
2019-03-23T19:22:07.691Z,98924.70
2019-03-23T19:24:38.755Z,98923.98
2019-03-23T19:27:09.736Z,98924.05
2019-03-23T19:29:40.748Z,98918.84
2019-03-23T19:32:13.077Z,98922.85
2019-03-23T19:34:43.944Z,98925.34
2019-03-23T19:37:15.044Z,98925.67
2019-03-23T19:39:47.080Z,98936.00
2019-03-23T19:42:18.021Z,98932.89
2019-03-23T19:44:49.014Z,98936.00
2019-03-23T19:47:21.910Z,98939.05
2019-03-23T19:49:52.975Z,98942.88
2019-03-23T19:52:24.087Z,98938.89
2019-03-23T19:54:55.067Z,98938.80
2019-03-23T19:57:26.501Z,98946.81
2019-03-23T19:59:57.543Z,98944.28
2019-03-23T20:02:29.684Z,98941.05
2019-03-23T20:05:00.582Z,98947.01
2019-03-23T20:07:33.233Z,98942.00
2019-03-23T20:10:08.749Z,98950.86
2019-03-23T20:12:39.743Z,98942.93
2019-03-23T20:15:12.817Z,98947.50
2019-03-23T20:17:44.286Z,98949.55
2019-03-23T20:20:16.868Z,98950.12
2019-03-23T20:22:47.946Z,98944.15
2019-03-23T20:25:20.714Z,98948.14
2019-03-23T20:27:51.805Z,98944.30
2019-03-23T20:30:22.968Z,98945.69
2019-03-23T20:32:53.976Z,98944.18
2019-03-23T20:35:25.407Z,98946.45
2019-03-23T20:37:56.547Z,98943.16
2019-03-23T20:40:27.645Z,98939.52
2019-03-23T20:42:58.982Z,98940.87
2019-03-23T20:45:30.864Z,98936.67
2019-03-23T20:48:02.361Z,98943.25
2019-03-23T20:50:33.785Z,98957.48
2019-03-23T20:53:05.153Z,98959.75
2019-03-23T20:55:36.633Z,98954.91
2019-03-23T20:58:07.990Z,98959.63
2019-03-23T21:00:40.749Z,98965.70
2019-03-23T21:03:11.735Z,98964.42
2019-03-23T21:05:42.823Z,98966.74
2019-03-23T21:08:13.725Z,98965.05
2019-03-23T21:10:45.916Z,98953.55
2019-03-23T21:13:17.495Z,98957.97
2019-03-23T21:16:08.937Z,98960.24
2019-03-23T21:18:48.268Z,98957.74
2019-03-23T21:21:21.430Z,98962.95
2019-03-23T21:23:52.484Z,98971.25
2019-03-23T21:26:23.441Z,98972.69
2019-03-23T21:28:54.457Z,98971.83
2019-03-23T21:31:26.374Z,98972.63
2019-03-23T21:33:57.471Z,98975.67
2019-03-23T21:36:30.859Z,98972.20
2019-03-23T21:39:03.339Z,98972.76
2019-03-23T21:41:35.735Z,98968.45
2019-03-23T21:44:08.393Z,98964.09
2019-03-23T21:46:39.353Z,98966.09
2019-03-23T21:49:10.471Z,98954.50
2019-03-23T21:51:41.412Z,98958.83
2019-03-23T21:54:13.080Z,98953.19
2019-03-23T21:56:44.029Z,98962.81
2019-03-23T21:59:15.088Z,98961.80
2019-03-23T22:01:46.293Z,98963.29
2019-03-23T22:04:17.374Z,98965.78
2019-03-23T22:06:48.334Z,98962.58
2019-03-23T22:09:19.252Z,98959.53
2019-03-23T22:11:50.309Z,98966.58
2019-03-23T22:14:21.313Z,98965.84
2019-03-23T22:16:53.828Z,98964.54
2019-03-23T22:19:25.680Z,98972.03
2019-03-23T22:21:56.968Z,98973.57
2019-03-23T22:24:28.109Z,98969.11
2019-03-23T22:26:59.273Z,98966.30
2019-03-23T22:29:30.606Z,98977.24
2019-03-23T22:32:01.758Z,98976.59
2019-03-23T22:34:32.880Z,98971.86
2019-03-23T22:37:04.044Z,98974.52
2019-03-23T22:39:35.386Z,98974.94
2019-03-23T22:42:06.823Z,98976.84
2019-03-23T22:44:37.985Z,98960.95
2019-03-23T22:47:09.300Z,98972.28
2019-03-23T22:49:40.368Z,98972.42
2019-03-23T22:52:11.439Z,98969.98
2019-03-23T22:54:42.396Z,98964.55
2019-03-23T22:57:13.563Z,98978.21
2019-03-23T22:59:44.817Z,98967.96
2019-03-23T23:02:16.101Z,98964.17
2019-03-23T23:04:47.194Z,98958.97
2019-03-23T23:07:18.403Z,98956.31
2019-03-23T23:09:49.595Z,98952.38
2019-03-23T23:12:20.756Z,98950.14
2019-03-23T23:14:53.711Z,98950.96
2019-03-23T23:17:24.442Z,98949.24
2019-03-23T23:19:55.364Z,98949.16
2019-03-23T23:22:26.568Z,98952.14
2019-03-23T23:24:57.472Z,98951.27
2019-03-23T23:27:28.448Z,98942.59
2019-03-23T23:29:59.728Z,98942.92
2019-03-23T23:32:30.789Z,98938.93
2019-03-23T23:35:01.933Z,98935.76
2019-03-23T23:37:32.932Z,98932.27
2019-03-23T23:40:06.198Z,98930.09
2019-03-23T23:42:37.412Z,98935.25
2019-03-23T23:45:15.339Z,98934.09
2019-03-23T23:47:42.317Z,98930.64
2019-03-23T23:50:13.513Z,98935.88
2019-03-23T23:52:44.491Z,98929.02
2019-03-23T23:55:15.541Z,98934.73
2019-03-23T23:57:46.556Z,98933.00
